Time;durP1;ratioP1;P1;durP2;ratioP2;P2;SDS_P1;SDS_P2;PMS_P1;PMS_P2;Temp;Humidity;BMP_temperature;BMP_pressure;BME280_temperature;BME280_humidity;BME280_pressure;Samples;Min_cycle;Max_cycle;Signal;HPM_P1;HPM_P2
2022/03/27 00:02:18;;;;;;;11.85;5.03;;;10.40;99.90;;;;;;5019918;28;20478;-62
2022/03/27 00:04:44;;;;;;;9.07;4.53;;;10.40;99.90;;;;;;5018784;28;20033;-65
2022/03/27 00:07:10;;;;;;;16.15;6.80;;;10.40;99.90;;;;;;5014462;28;20110;-64
2022/03/27 00:09:38;;;;;;;8.60;4.28;;;10.30;99.90;;;;;;5013731;28;20132;-68
2022/03/27 00:12:04;;;;;;;6.72;3.65;;;10.30;99.90;;;;;;5011407;28;20069;-66
2022/03/27 00:14:30;;;;;;;9.82;4.40;;;10.30;99.90;;;;;;5013880;28;20049;-67
2022/03/27 00:16:57;;;;;;;11.63;5.70;;;10.20;99.90;;;;;;5013823;28;20068;-68
2022/03/27 00:19:22;;;;;;;9.15;4.72;;;10.10;99.90;;;;;;5013860;28;20382;-68
2022/03/27 00:21:49;;;;;;;10.02;4.47;;;10.00;99.90;;;;;;5027299;28;20466;-65
2022/03/27 00:24:15;;;;;;;10.13;4.22;;;10.00;99.90;;;;;;5033506;28;20052;-64
2022/03/27 00:26:41;;;;;;;12.65;5.25;;;9.90;99.90;;;;;;5033955;28;20025;-62
2022/03/27 00:29:06;;;;;;;10.07;5.10;;;9.90;99.90;;;;;;5032471;28;20461;-65
2022/03/27 00:31:35;;;;;;;12.18;5.00;;;9.90;99.90;;;;;;5013879;28;20037;-64
2022/03/27 00:34:02;;;;;;;10.23;5.18;;;9.80;99.90;;;;;;5006887;28;20026;-63
2022/03/27 00:36:28;;;;;;;9.18;4.57;;;9.80;99.90;;;;;;5013551;28;20018;-62
2022/03/27 00:38:55;;;;;;;11.32;4.90;;;9.80;99.90;;;;;;5013610;28;20046;-66
2022/03/27 00:41:23;;;;;;;8.70;4.68;;;9.80;99.90;;;;;;5013961;28;20030;-63
2022/03/27 00:43:49;;;;;;;11.95;5.10;;;9.80;99.90;;;;;;5013121;28;20026;-64
2022/03/27 00:46:14;;;;;;;11.45;5.10;;;9.80;99.90;;;;;;5013360;28;20362;-67
2022/03/27 00:48:40;;;;;;;12.93;6.43;;;9.80;99.90;;;;;;5013301;28;20026;-66
2022/03/27 00:51:06;;;;;;;13.95;6.35;;;9.80;99.90;;;;;;5013788;28;20061;-64
2022/03/27 00:53:31;;;;;;;17.25;7.07;;;9.80;99.90;;;;;;5027101;28;20096;-64
2022/03/27 00:55:57;;;;;;;21.30;10.57;;;9.80;99.90;;;;;;5013629;28;20030;-62
2022/03/27 00:58:23;;;;;;;15.70;6.90;;;9.80;99.90;;;;;;5013474;28;20045;-62
2022/03/27 01:01:16;;;;;;;16.98;7.95;;;9.80;99.90;;;;;;5013581;28;20026;-61
2022/03/27 01:03:43;;;;;;;23.52;10.68;;;9.80;99.90;;;;;;5013544;28;20030;-65
2022/03/27 01:06:24;;;;;;;17.88;8.35;;;9.80;99.90;;;;;;5013101;28;20064;-61
2022/03/27 01:11:34;;;;;;;19.88;8.50;;;9.60;99.90;;;;;;5012979;28;20084;-66
2022/03/27 01:13:59;;;;;;;22.85;10.60;;;9.60;99.90;;;;;;5013300;28;20451;-66
2022/03/27 01:16:47;;;;;;;28.98;12.93;;;9.50;99.90;;;;;;5012813;28;20034;-63
2022/03/27 01:19:16;;;;;;;15.82;6.78;;;9.50;99.90;;;;;;5013202;28;20053;-63
2022/03/27 01:21:44;;;;;;;19.73;7.43;;;9.40;99.90;;;;;;5013569;28;20068;-62
2022/03/27 01:24:10;;;;;;;21.15;8.52;;;9.50;99.90;;;;;;5013101;28;20022;-66
2022/03/27 01:26:38;;;;;;;10.20;4.78;;;9.50;99.90;;;;;;5013506;28;20060;-62
2022/03/27 01:29:05;;;;;;;13.48;5.90;;;9.50;99.90;;;;;;5013470;28;20459;-63
2022/03/27 01:31:32;;;;;;;14.23;4.90;;;9.50;99.90;;;;;;5012864;28;20046;-65
2022/03/27 01:33:58;;;;;;;12.55;4.90;;;9.40;99.90;;;;;;5013116;28;20098;-63
2022/03/27 01:36:34;;;;;;;11.60;5.00;;;9.30;99.90;;;;;;5013421;28;20049;-63
2022/03/27 01:39:00;;;;;;;11.98;5.03;;;9.30;99.90;;;;;;5013487;28;20092;-63
2022/03/27 01:41:26;;;;;;;12.63;5.70;;;9.20;99.90;;;;;;5013374;28;20049;-63
2022/03/27 01:43:52;;;;;;;11.65;4.70;;;9.20;99.90;;;;;;5013218;28;20022;-63
2022/03/27 01:46:18;;;;;;;11.50;4.75;;;9.10;99.90;;;;;;5012528;28;20462;-63
2022/03/27 01:48:44;;;;;;;13.73;5.60;;;9.10;99.90;;;;;;5013088;28;20026;-63
2022/03/27 01:51:09;;;;;;;11.80;4.50;;;9.00;99.90;;;;;;5011913;28;20030;-62
2022/03/27 01:53:39;;;;;;;14.75;5.95;;;8.90;99.90;;;;;;5012274;28;20377;-62
2022/03/27 01:56:07;;;;;;;17.02;6.57;;;8.90;99.90;;;;;;5013143;28;20034;-62
2022/03/27 01:58:33;;;;;;;14.60;5.75;;;8.80;99.90;;;;;;5013269;28;20038;-62
2022/03/27 02:00:58;;;;;;;15.65;6.60;;;8.80;99.90;;;;;;5012542;28;20026;-63
2022/03/27 02:03:27;;;;;;;11.77;5.47;;;8.70;99.90;;;;;;5013204;28;20034;-62
2022/03/27 02:05:54;;;;;;;16.05;6.35;;;8.80;99.90;;;;;;5012924;28;20033;-62
2022/03/27 02:08:20;;;;;;;14.85;5.75;;;8.80;99.90;;;;;;5012679;28;20037;-62
2022/03/27 02:10:46;;;;;;;14.45;5.63;;;8.80;99.90;;;;;;5013055;28;20029;-61
2022/03/27 02:13:18;;;;;;;13.82;5.57;;;8.90;99.90;;;;;;5016280;28;20029;-63
2022/03/27 02:15:45;;;;;;;;;;;8.90;99.90;;;;;;5016281;28;20069;-62
2022/03/27 02:18:11;;;;;;;14.25;5.70;;;9.00;99.90;;;;;;5016375;28;19920;-62
2022/03/27 02:20:37;;;;;;;14.68;5.97;;;9.00;99.90;;;;;;5016474;28;20026;-62
2022/03/27 02:23:02;;;;;;;13.50;5.53;;;9.00;99.90;;;;;;5016318;28;20356;-63
2022/03/27 02:25:28;;;;;;;15.32;5.78;;;9.00;99.90;;;;;;5013945;28;20049;-62
2022/03/27 02:27:53;;;;;;;15.20;5.55;;;9.00;99.90;;;;;;5016378;28;20038;-62
2022/03/27 02:30:20;;;;;;;15.75;6.38;;;9.00;99.90;;;;;;5015721;28;20068;-62
2022/03/27 02:32:47;;;;;;;15.73;6.20;;;9.00;99.90;;;;;;5016296;28;20022;-62
2022/03/27 02:35:12;;;;;;;16.05;6.82;;;9.00;99.90;;;;;;5016281;28;20029;-62
2022/03/27 02:37:38;;;;;;;14.68;6.55;;;9.00;99.90;;;;;;5014998;28;20022;-64
2022/03/27 02:40:05;;;;;;;17.13;7.40;;;9.00;99.90;;;;;;5015666;28;20029;-62
2022/03/27 02:42:31;;;;;;;15.15;6.93;;;9.00;99.90;;;;;;5014762;28;20026;-63
2022/03/27 02:44:56;;;;;;;14.88;6.53;;;9.00;99.90;;;;;;5015673;28;20041;-62
2022/03/27 02:47:22;;;;;;;19.10;8.25;;;9.00;99.90;;;;;;5015588;28;20030;-62
2022/03/27 02:49:47;;;;;;;12.55;5.82;;;8.90;99.90;;;;;;5015471;28;20057;-62
2022/03/27 02:52:13;;;;;;;16.13;6.00;;;8.90;99.90;;;;;;5015712;28;20053;-62
2022/03/27 02:54:38;;;;;;;19.88;7.82;;;8.90;99.90;;;;;;5015821;28;20105;-62
2022/03/27 02:57:04;;;;;;;16.40;6.43;;;8.80;99.90;;;;;;5014968;28;20061;-62
2022/03/27 02:59:30;;;;;;;16.33;6.35;;;8.70;99.90;;;;;;5015349;28;20065;-63
2022/03/27 03:01:55;;;;;;;17.02;6.80;;;8.70;99.90;;;;;;5014523;28;20026;-63
2022/03/27 03:04:21;;;;;;;17.30;6.63;;;8.80;99.90;;;;;;5015076;28;20106;-63
2022/03/27 03:06:47;;;;;;;17.88;7.35;;;8.70;99.90;;;;;;5016075;28;20040;-62
2022/03/27 03:09:13;;;;;;;11.18;4.95;;;8.70;99.90;;;;;;5014183;28;20021;-62
2022/03/27 03:11:39;;;;;;;20.48;7.82;;;8.70;99.90;;;;;;5015036;28;20451;-62
2022/03/27 03:14:04;;;;;;;17.17;6.70;;;8.70;99.90;;;;;;5014879;28;20062;-62
2022/03/27 03:16:32;;;;;;;15.13;6.00;;;8.70;99.90;;;;;;5014992;28;20026;-63
2022/03/27 03:18:57;;;;;;;16.95;6.43;;;8.70;99.90;;;;;;5014878;28;20053;-62
2022/03/27 03:21:23;;;;;;;12.27;5.40;;;8.60;99.90;;;;;;5014908;28;20190;-63
2022/03/27 03:23:49;;;;;;;14.50;5.85;;;8.60;99.90;;;;;;5013820;28;20026;-63
2022/03/27 03:26:14;;;;;;;14.00;6.20;;;8.60;99.90;;;;;;5015301;28;20050;-63
2022/03/27 03:28:40;;;;;;;13.80;5.45;;;8.60;99.90;;;;;;5014654;28;20032;-63
2022/03/27 03:31:06;;;;;;;13.10;5.18;;;8.60;99.90;;;;;;5014927;28;20059;-63
2022/03/27 03:33:32;;;;;;;16.50;6.15;;;8.60;99.90;;;;;;5014311;28;20030;-63
2022/03/27 03:35:57;;;;;;;14.88;5.90;;;8.60;99.90;;;;;;5014864;28;20022;-62
2022/03/27 03:38:23;;;;;;;14.50;5.63;;;8.60;99.90;;;;;;5014487;28;20034;-62
2022/03/27 03:40:49;;;;;;;16.05;6.47;;;8.60;99.90;;;;;;5014437;28;20029;-63
2022/03/27 03:43:14;;;;;;;16.95;6.75;;;8.60;99.90;;;;;;5013494;28;20084;-62
2022/03/27 03:45:40;;;;;;;15.50;5.85;;;8.50;99.90;;;;;;5014383;28;20026;-62
2022/03/27 03:48:06;;;;;;;16.55;6.18;;;8.50;99.90;;;;;;5014722;28;20100;-62
2022/03/27 03:50:35;;;;;;;15.98;5.97;;;8.40;99.90;;;;;;5014443;28;20026;-63
2022/03/27 03:53:02;;;;;;;15.57;6.20;;;8.40;99.90;;;;;;5014484;28;20101;-63
2022/03/27 03:55:28;;;;;;;12.48;5.30;;;8.40;99.90;;;;;;5014209;28;20034;-63
2022/03/27 03:57:56;;;;;;;13.18;5.70;;;8.40;99.90;;;;;;5012865;28;20034;-63
2022/03/27 04:00:22;;;;;;;13.27;4.68;;;8.40;99.90;;;;;;5013462;28;20018;-63
2022/03/27 04:02:48;;;;;;;15.70;5.82;;;8.40;99.90;;;;;;5014199;28;20105;-63
2022/03/27 04:05:14;;;;;;;14.95;6.30;;;8.40;99.90;;;;;;5012975;28;20126;-63
2022/03/27 04:07:40;;;;;;;15.75;6.25;;;8.40;99.90;;;;;;5014647;28;20024;-63
2022/03/27 04:10:06;;;;;;;15.70;5.68;;;8.40;99.90;;;;;;5012462;28;20428;-64
2022/03/27 04:12:32;;;;;;;14.73;5.63;;;8.40;99.90;;;;;;5014259;28;20032;-62
2022/03/27 04:14:57;;;;;;;14.05;5.82;;;8.50;99.90;;;;;;5014491;28;20029;-62
2022/03/27 04:17:23;;;;;;;13.93;5.15;;;8.50;99.90;;;;;;5012300;28;20030;-63
2022/03/27 04:19:48;;;;;;;14.77;6.55;;;8.50;99.90;;;;;;5013894;28;20038;-62
2022/03/27 04:22:14;;;;;;;16.98;5.88;;;8.50;99.90;;;;;;5013916;28;20084;-63
2022/03/27 04:24:39;;;;;;;13.15;5.38;;;8.50;99.90;;;;;;5012983;28;20057;-64
2022/03/27 04:27:05;;;;;;;10.30;4.72;;;8.50;99.90;;;;;;5009102;28;20030;-63
2022/03/27 04:29:30;;;;;;;16.30;5.85;;;8.50;99.90;;;;;;4995032;28;20046;-63
2022/03/27 04:31:56;;;;;;;10.93;4.43;;;8.40;99.90;;;;;;4994576;28;20030;-63
2022/03/27 04:34:22;;;;;;;9.63;4.35;;;8.40;99.90;;;;;;5008318;28;20030;-63
2022/03/27 04:36:47;;;;;;;10.25;4.45;;;8.30;99.90;;;;;;5013598;28;20030;-63
2022/03/27 04:39:13;;;;;;;11.25;5.00;;;8.20;99.90;;;;;;5013025;28;20084;-63
2022/03/27 04:41:39;;;;;;;12.68;4.80;;;8.20;99.90;;;;;;5013855;28;20034;-62
2022/03/27 04:44:07;;;;;;;15.68;6.43;;;8.20;99.90;;;;;;5013953;28;20030;-62
2022/03/27 04:46:33;;;;;;;13.77;6.05;;;8.10;99.90;;;;;;5013097;28;20044;-62
2022/03/27 04:48:58;;;;;;;16.05;6.30;;;8.10;99.90;;;;;;5013344;28;20108;-62
2022/03/27 04:51:24;;;;;;;13.32;5.63;;;8.10;99.90;;;;;;5013801;28;20453;-63
2022/03/27 04:53:50;;;;;;;13.73;5.57;;;8.10;99.90;;;;;;5014049;28;20034;-62
2022/03/27 04:56:17;;;;;;;12.27;5.38;;;8.10;99.90;;;;;;5013842;28;20050;-62
2022/03/27 04:58:42;;;;;;;13.13;5.60;;;8.10;99.90;;;;;;5013775;28;20046;-62
2022/03/27 05:01:10;;;;;;;12.82;5.70;;;8.20;99.90;;;;;;5013788;28;20033;-62
2022/03/27 05:03:35;;;;;;;13.55;5.75;;;8.20;99.90;;;;;;5013375;28;20038;-63
2022/03/27 05:06:01;;;;;;;13.35;5.80;;;8.20;99.90;;;;;;5014528;28;20095;-63
2022/03/27 05:08:27;;;;;;;17.60;7.07;;;8.20;99.90;;;;;;5013580;28;20026;-62
2022/03/27 05:10:52;;;;;;;16.20;6.82;;;8.20;99.90;;;;;;5012574;28;20033;-62
2022/03/27 05:13:18;;;;;;;14.25;5.63;;;8.20;99.90;;;;;;5013570;28;20466;-62
2022/03/27 05:15:44;;;;;;;15.13;6.70;;;8.20;99.90;;;;;;5014058;28;20104;-62
2022/03/27 05:18:10;;;;;;;15.05;6.43;;;8.10;99.90;;;;;;5012928;28;20168;-62
2022/03/27 05:20:40;;;;;;;15.13;6.38;;;8.10;99.90;;;;;;5013671;28;20062;-62
2022/03/27 05:23:05;;;;;;;16.83;7.60;;;8.10;99.90;;;;;;5013708;28;20135;-62
2022/03/27 05:25:40;;;;;;;18.80;6.82;;;8.00;99.90;;;;;;5011234;28;20177;-63
2022/03/27 05:28:07;;;;;;;18.48;8.38;;;7.90;99.90;;;;;;5013658;28;20030;-62
2022/03/27 05:30:33;;;;;;;16.25;7.68;;;7.90;99.90;;;;;;5012744;28;20036;-62
2022/03/27 05:32:58;;;;;;;22.42;9.00;;;7.80;99.90;;;;;;5013687;28;20026;-63
2022/03/27 05:35:24;;;;;;;18.48;8.68;;;7.70;99.90;;;;;;4993531;28;20562;-63
2022/03/27 05:37:52;;;;;;;17.60;8.07;;;7.70;99.90;;;;;;4993733;28;20050;-63
2022/03/27 05:40:19;;;;;;;17.45;7.65;;;7.60;99.90;;;;;;4993480;28;20030;-63
2022/03/27 05:42:45;;;;;;;20.73;9.88;;;7.60;99.90;;;;;;5011615;28;20026;-63
2022/03/27 05:45:12;;;;;;;20.70;9.27;;;7.50;99.90;;;;;;5012907;28;20065;-63
2022/03/27 05:47:38;;;;;;;20.05;9.57;;;7.50;99.90;;;;;;5014340;28;20364;-62
2022/03/27 05:50:05;;;;;;;22.35;9.32;;;7.50;99.90;;;;;;5015997;28;20029;-63
2022/03/27 05:52:30;;;;;;;23.67;9.05;;;7.50;99.90;;;;;;5015490;28;20018;-63
2022/03/27 05:54:57;;;;;;;23.13;9.80;;;7.50;99.90;;;;;;5016716;28;20037;-62
2022/03/27 05:57:22;;;;;;;22.05;10.05;;;7.50;99.90;;;;;;5017089;28;20026;-63
2022/03/27 05:59:48;;;;;;;23.65;11.20;;;7.60;99.90;;;;;;5016261;28;20046;-62
2022/03/27 06:02:14;;;;;;;25.70;10.52;;;7.60;99.90;;;;;;5016924;28;20026;-63
2022/03/27 06:04:40;;;;;;;21.00;9.93;;;7.60;99.90;;;;;;5016643;28;20075;-63
2022/03/27 06:07:07;;;;;;;35.85;11.00;;;7.70;99.90;;;;;;5014662;28;20060;-63
2022/03/27 06:09:33;;;;;;;32.35;11.05;;;7.70;99.90;;;;;;5015340;28;20026;-62
2022/03/27 06:11:59;;;;;;;24.25;10.20;;;7.80;99.90;;;;;;5012157;28;20447;-63
2022/03/27 06:14:24;;;;;;;22.77;9.57;;;7.90;99.90;;;;;;4997388;28;20447;-62
2022/03/27 06:16:50;;;;;;;21.17;9.30;;;7.90;99.90;;;;;;5010462;28;20030;-63
2022/03/27 06:19:15;;;;;;;22.58;9.93;;;7.90;99.90;;;;;;5016196;28;20498;-62
2022/03/27 06:21:43;;;;;;;28.55;10.48;;;8.00;99.90;;;;;;5016109;28;20041;-63
2022/03/27 06:24:09;;;;;;;23.83;9.43;;;8.00;99.90;;;;;;5016553;28;20434;-62
2022/03/27 06:26:34;;;;;;;21.75;9.20;;;8.10;99.90;;;;;;5016620;28;20083;-62
2022/03/27 06:29:00;;;;;;;22.73;8.52;;;8.10;99.90;;;;;;5016851;28;20041;-64
2022/03/27 06:31:25;;;;;;;20.63;8.45;;;8.10;99.90;;;;;;5016489;28;20032;-64
2022/03/27 06:33:51;;;;;;;21.05;8.18;;;8.20;99.90;;;;;;5016421;28;20034;-62
2022/03/27 06:36:17;;;;;;;18.42;7.38;;;8.20;99.90;;;;;;5016374;28;20296;-63
2022/03/27 06:38:43;;;;;;;20.90;7.60;;;8.20;99.90;;;;;;5014837;28;20402;-63
2022/03/27 06:41:09;;;;;;;20.05;7.90;;;8.30;99.90;;;;;;5016326;28;20038;-63
2022/03/27 06:43:36;;;;;;;20.10;7.60;;;8.30;99.90;;;;;;5014381;28;20032;-63
2022/03/27 06:46:02;;;;;;;21.45;8.02;;;8.40;99.90;;;;;;5015761;28;20382;-63
2022/03/27 06:48:28;;;;;;;21.88;8.57;;;8.60;99.90;;;;;;5011890;28;20030;-63
2022/03/27 06:50:54;;;;;;;20.13;7.70;;;8.80;99.90;;;;;;4996572;28;20362;-62
2022/03/27 06:53:22;;;;;;;19.17;7.45;;;8.90;99.90;;;;;;4996895;28;20038;-62
2022/03/27 06:55:47;;;;;;;20.48;7.45;;;9.00;99.90;;;;;;5001055;28;20355;-63
2022/03/27 06:58:13;;;;;;;19.85;7.85;;;9.00;99.90;;;;;;5015461;28;20095;-63
2022/03/27 07:03:23;;;;;;;16.60;7.20;;;9.10;99.90;;;;;;5014828;28;20053;-63
2022/03/27 07:05:48;;;;;;;18.55;8.70;;;9.20;99.90;;;;;;5014735;28;20459;-63
2022/03/27 07:08:22;;;;;;;22.80;7.72;;;9.20;99.90;;;;;;5014980;28;20088;-63
2022/03/27 07:10:49;;;;;;;18.10;7.13;;;9.20;99.90;;;;;;5015449;28;20033;-63
2022/03/27 07:13:17;;;;;;;17.67;6.55;;;9.30;99.90;;;;;;5013984;28;20053;-63
2022/03/27 07:15:45;;;;;;;19.25;7.30;;;9.30;99.90;;;;;;5015516;28;20026;-63
2022/03/27 07:18:11;;;;;;;18.98;7.50;;;9.40;99.90;;;;;;5015847;28;20034;-63
2022/03/27 07:20:41;;;;;;;15.55;7.63;;;9.50;99.90;;;;;;5015503;28;20026;-62
2022/03/27 07:23:09;;;;;;;18.60;7.10;;;9.50;99.90;;;;;;5015617;28;20052;-62
2022/03/27 07:25:39;;;;;;;16.83;6.32;;;9.60;99.90;;;;;;5015019;28;20124;-62
2022/03/27 07:28:07;;;;;;;21.05;6.60;;;9.70;99.90;;;;;;5015247;28;20069;-63
2022/03/27 07:30:33;;;;;;;19.27;6.22;;;9.70;99.90;;;;;;5018463;28;20025;-64
2022/03/27 07:32:58;;;;;;;16.17;6.47;;;9.80;99.90;;;;;;5030299;28;20454;-62
2022/03/27 07:35:26;;;;;;;15.50;5.82;;;9.90;99.90;;;;;;5014115;28;20030;-62
2022/03/27 07:37:53;;;;;;;23.48;7.55;;;10.10;99.90;;;;;;5013779;28;20026;-63
2022/03/27 07:40:20;;;;;;;15.68;5.55;;;10.30;99.90;;;;;;5014808;28;20037;-64
2022/03/27 07:42:49;;;;;;;16.63;6.43;;;10.60;99.90;;;;;;5013874;28;20127;-63
2022/03/27 07:45:18;;;;;;;18.17;5.53;;;11.10;99.90;;;;;;5014823;28;20026;-62
2022/03/27 07:47:44;;;;;;;16.88;5.57;;;11.70;99.90;;;;;;5015296;28;20112;-63
2022/03/27 07:50:11;;;;;;;17.23;5.47;;;12.50;99.90;;;;;;5014548;28;20048;-63
2022/03/27 07:52:37;;;;;;;14.68;5.22;;;13.20;99.90;;;;;;5014790;28;20520;-62
2022/03/27 07:55:05;;;;;;;16.13;5.00;;;13.90;99.90;;;;;;5014476;28;20033;-63
2022/03/27 07:57:30;;;;;;;13.95;5.10;;;14.60;99.90;;;;;;5013855;28;20115;-63
2022/03/27 07:59:56;;;;;;;14.57;4.78;;;15.50;99.90;;;;;;5014110;28;20093;-63
2022/03/27 08:02:22;;;;;;;15.45;5.18;;;16.20;99.90;;;;;;5013708;28;20022;-63
2022/03/27 08:04:49;;;;;;;10.45;4.90;;;16.90;99.60;;;;;;5014201;28;20386;-63
2022/03/27 08:07:14;;;;;;;12.70;4.55;;;17.50;98.40;;;;;;5014371;28;20022;-63
2022/03/27 08:09:41;;;;;;;14.65;5.00;;;18.10;96.80;;;;;;5013085;28;20033;-63
2022/03/27 08:12:08;;;;;;;15.00;4.70;;;18.50;95.60;;;;;;5013215;28;20511;-63
2022/03/27 08:14:38;;;;;;;14.48;4.72;;;19.00;95.00;;;;;;5012988;28;20037;-63
2022/03/27 08:17:04;;;;;;;12.82;4.68;;;19.60;94.10;;;;;;5013660;28;20363;-63
2022/03/27 08:19:30;;;;;;;12.90;4.28;;;20.30;92.70;;;;;;5014232;28;20053;-63
2022/03/27 08:21:56;;;;;;;12.23;4.18;;;20.70;91.60;;;;;;5013979;28;20030;-63
2022/03/27 08:24:22;;;;;;;12.48;4.10;;;21.20;90.60;;;;;;5013858;28;20032;-63
2022/03/27 08:26:59;;;;;;;12.98;4.55;;;21.40;88.70;;;;;;5014186;28;20025;-63
2022/03/27 08:29:37;;;;;;;13.98;4.18;;;21.60;87.50;;;;;;5014535;28;20044;-63
2022/03/27 08:32:06;;;;;;;15.98;4.30;;;22.00;85.10;;;;;;5012396;28;20022;-62
2022/03/27 08:34:34;;;;;;;11.00;3.75;;;22.20;83.50;;;;;;5002829;28;20022;-63
2022/03/27 08:37:02;;;;;;;14.57;3.90;;;22.40;82.60;;;;;;5013962;28;20048;-63
2022/03/27 08:39:28;;;;;;;10.20;3.85;;;22.60;80.50;;;;;;5012671;28;20402;-63
2022/03/27 08:41:55;;;;;;;14.98;3.80;;;22.80;79.10;;;;;;5013885;28;20474;-62
2022/03/27 08:44:22;;;;;;;10.43;3.55;;;23.00;77.60;;;;;;5013420;28;20534;-63
2022/03/27 08:46:50;;;;;;;14.50;3.67;;;23.10;76.80;;;;;;5014040;28;20030;-63
2022/03/27 08:49:38;;;;;;;10.38;3.25;;;23.40;75.90;;;;;;5014076;28;20374;-63
2022/03/27 08:52:17;;;;;;;15.00;3.55;;;23.80;74.00;;;;;;5014135;28;20033;-63
2022/03/27 08:54:47;;;;;;;10.43;3.20;;;24.20;72.80;;;;;;5013871;28;20470;-63
2022/03/27 08:57:22;;;;;;;10.05;3.53;;;24.60;70.70;;;;;;5014026;28;20104;-63
2022/03/27 08:59:50;;;;;;;13.30;3.58;;;24.90;68.90;;;;;;5013228;28;20045;-63
2022/03/27 09:02:16;;;;;;;11.77;3.50;;;25.00;68.40;;;;;;5013111;28;20389;-63
2022/03/27 09:04:42;;;;;;;9.90;3.40;;;25.10;67.70;;;;;;5013879;28;20109;-63
2022/03/27 09:07:07;;;;;;;10.02;3.17;;;25.30;66.80;;;;;;5013474;28;20022;-63
2022/03/27 09:09:34;;;;;;;10.15;3.03;;;25.50;64.90;;;;;;5012817;28;20038;-63
2022/03/27 09:12:04;;;;;;;9.10;3.40;;;25.50;63.90;;;;;;5013458;28;20022;-63
2022/03/27 09:14:32;;;;;;;11.35;3.78;;;25.40;63.70;;;;;;5013548;28;20056;-63
2022/03/27 09:17:07;;;;;;;11.20;3.25;;;25.60;64.20;;;;;;5012240;28;20116;-63
2022/03/27 09:19:33;;;;;;;11.02;3.15;;;25.80;62.90;;;;;;5013466;28;20045;-63
2022/03/27 09:21:59;;;;;;;10.30;3.30;;;25.90;62.80;;;;;;5013616;28;20018;-63
2022/03/27 09:24:35;;;;;;;9.90;3.13;;;26.10;61.60;;;;;;5016194;28;20048;-63
2022/03/27 09:27:01;;;;;;;12.85;3.78;;;26.40;61.60;;;;;;5016612;28;20052;-63
2022/03/27 09:29:26;;;;;;;10.48;2.97;;;26.60;60.50;;;;;;5014665;28;20092;-62
2022/03/27 09:31:58;;;;;;;8.85;2.92;;;26.70;59.90;;;;;;5011565;28;20427;-63
2022/03/27 09:34:23;;;;;;;;;;;26.70;59.80;;;;;;5017193;28;20021;-63
2022/03/27 09:36:50;;;;;;;12.57;3.03;;;26.80;57.90;;;;;;5019616;28;20009;-62
2022/03/27 09:39:17;;;;;;;11.48;3.30;;;26.80;57.90;;;;;;5025291;28;20045;-64
2022/03/27 09:42:01;;;;;;;11.32;3.20;;;26.40;57.10;;;;;;5017271;28;20164;-64
2022/03/27 09:44:31;;;;;;;10.90;3.53;;;26.00;58.10;;;;;;5016473;28;20037;-66
2022/03/27 09:47:06;;;;;;;9.70;2.90;;;25.80;58.50;;;;;;5016538;28;20029;-64
2022/03/27 09:49:35;;;;;;;10.38;2.95;;;25.70;58.60;;;;;;5017149;28;20485;-65
2022/03/27 09:52:00;;;;;;;11.13;2.83;;;25.80;58.00;;;;;;5015933;28;20168;-66
2022/03/27 09:54:28;;;;;;;10.68;3.20;;;25.80;56.00;;;;;;5016049;28;20505;-64
2022/03/27 09:56:54;;;;;;;11.13;3.50;;;25.50;56.60;;;;;;5016110;28;20026;-67
2022/03/27 09:59:46;;;;;;;11.13;2.50;;;25.20;57.30;;;;;;5016712;28;20044;-66
2022/03/27 10:02:30;;;;;;;12.95;3.33;;;24.70;57.30;;;;;;5014525;28;20038;-64
2022/03/27 10:04:59;;;;;;;12.45;2.83;;;24.30;58.10;;;;;;5015680;28;20466;-64
2022/03/27 10:07:26;;;;;;;9.70;2.60;;;24.10;57.40;;;;;;5016715;28;20493;-63
2022/03/27 10:09:55;;;;;;;12.32;3.22;;;24.10;57.40;;;;;;5016834;28;20037;-66
2022/03/27 10:12:31;;;;;;;10.60;3.28;;;24.20;58.00;;;;;;5016081;28;20034;-65
2022/03/27 10:15:27;;;;;;;14.23;2.97;;;24.40;58.10;;;;;;5013341;28;20030;-67
2022/03/27 10:18:00;;;;;;;13.45;3.05;;;24.80;57.10;;;;;;5035596;28;20120;-67
2022/03/27 10:20:32;;;;;;;11.25;3.55;;;25.00;57.60;;;;;;5023152;28;20216;-66
2022/03/27 10:23:07;;;;;;;10.88;2.95;;;25.40;57.00;;;;;;5016191;28;20037;-65
2022/03/27 10:25:52;;;;;;;11.50;2.92;;;25.60;55.90;;;;;;5014917;28;20061;-62
2022/03/27 10:28:19;;;;;;;10.85;2.95;;;25.60;54.60;;;;;;5009566;28;20471;-68
2022/03/27 10:30:48;;;;;;;10.95;2.88;;;25.60;53.70;;;;;;5007153;28;20029;-65
2022/03/27 10:33:15;;;;;;;17.95;3.67;;;25.60;55.10;;;;;;5016493;28;20030;-66
2022/03/27 10:36:17;;;;;;;10.48;2.90;;;25.60;54.80;;;;;;5030865;28;20390;-65
2022/03/27 10:39:06;;;;;;;10.98;2.83;;;25.70;54.30;;;;;;5016048;28;20482;-63
2022/03/27 10:41:49;;;;;;;10.70;2.80;;;25.70;53.10;;;;;;5023968;28;20022;-67
2022/03/27 10:44:40;;;;;;;11.15;2.33;;;26.00;50.90;;;;;;5021533;28;20097;-66
2022/03/27 10:47:13;;;;;;;10.98;2.60;;;26.20;49.50;;;;;;5014276;28;20029;-63
2022/03/27 10:49:40;;;;;;;11.50;2.75;;;26.20;48.10;;;;;;5015623;28;20157;-64
2022/03/27 10:52:07;;;;;;;12.85;2.67;;;26.20;49.30;;;;;;5015235;28;20030;-66
2022/03/27 10:54:57;;;;;;;10.18;2.70;;;26.30;49.50;;;;;;5015344;28;20105;-66
2022/03/27 10:57:35;;;;;;;11.82;2.90;;;26.40;50.50;;;;;;5015740;28;20029;-64
2022/03/27 11:00:03;;;;;;;13.80;2.85;;;26.40;50.80;;;;;;5015186;28;20041;-66
2022/03/27 11:02:53;;;;;;;10.15;2.70;;;26.40;51.10;;;;;;5015492;28;20030;-62
2022/03/27 11:05:36;;;;;;;7.68;2.22;;;26.60;49.30;;;;;;5014619;28;20038;-65
2022/03/27 11:08:16;;;;;;;12.15;2.20;;;26.50;48.40;;;;;;5015845;28;20041;-68
2022/03/27 11:10:52;;;;;;;10.18;2.70;;;26.30;47.40;;;;;;5015470;28;20028;-65
2022/03/27 11:13:26;;;;;;;8.88;2.40;;;26.20;47.00;;;;;;5011742;28;20030;-66
2022/03/27 11:16:14;;;;;;;14.52;2.83;;;26.10;47.50;;;;;;4995891;28;20030;-63
2022/03/27 11:18:40;;;;;;;9.80;2.42;;;26.20;47.00;;;;;;5007422;28;20038;-67
2022/03/27 11:21:07;;;;;;;11.55;2.67;;;26.30;47.30;;;;;;5015170;28;20073;-68
2022/03/27 11:23:38;;;;;;;13.85;2.67;;;26.40;48.10;;;;;;5015188;28;20026;-65
2022/03/27 11:26:25;;;;;;;10.07;2.17;;;26.50;47.30;;;;;;5015039;28;20149;-65
2022/03/27 11:28:53;;;;;;;10.98;2.72;;;26.40;45.90;;;;;;5008940;28;20037;-65
2022/03/27 11:31:22;;;;;;;6.93;1.95;;;26.40;44.80;;;;;;4995670;28;20125;-66
2022/03/27 11:34:14;;;;;;;9.15;1.95;;;26.50;41.30;;;;;;4995373;28;20026;-67
2022/03/27 11:36:42;;;;;;;8.73;2.60;;;26.30;42.10;;;;;;5009556;28;20018;-67
2022/03/27 11:39:13;;;;;;;9.82;2.25;;;26.10;42.70;;;;;;5013777;28;20497;-65
2022/03/27 11:41:44;;;;;;;7.55;2.35;;;26.00;42.10;;;;;;5009861;28;20045;-65
2022/03/27 11:47:11;;;;;;;6.78;1.60;;;26.00;41.00;;;;;;5003969;28;20443;-63
2022/03/27 11:49:41;;;;;;;8.73;2.03;;;26.10;39.60;;;;;;5012149;28;20057;-66
2022/03/27 11:52:12;;;;;;;9.32;2.45;;;26.10;39.60;;;;;;5010446;28;20044;-66
2022/03/27 11:54:38;;;;;;;11.20;2.15;;;26.00;40.70;;;;;;5003456;28;20450;-63
2022/03/27 11:57:04;;;;;;;10.30;1.95;;;25.90;41.10;;;;;;4998754;28;20087;-66
2022/03/27 11:59:31;;;;;;;6.93;1.90;;;26.10;39.60;;;;;;5011932;28;20038;-63
2022/03/27 12:02:00;;;;;;;7.40;1.70;;;26.30;39.70;;;;;;5013869;28;20030;-62
2022/03/27 12:04:27;;;;;;;8.68;1.98;;;26.20;39.00;;;;;;5014497;28;20040;-65
2022/03/27 12:07:02;;;;;;;6.78;1.80;;;26.10;39.10;;;;;;5013585;28;20018;-63
2022/03/27 12:09:29;;;;;;;6.40;1.90;;;26.10;39.60;;;;;;5002725;28;20030;-64
2022/03/27 12:12:12;;;;;;;6.07;1.55;;;26.10;39.60;;;;;;5013981;28;20101;-66
2022/03/27 12:14:54;;;;;;;7.47;2.00;;;26.10;40.10;;;;;;5012086;28;20033;-63
2022/03/27 12:17:20;;;;;;;5.53;1.45;;;26.00;40.40;;;;;;5004522;28;20112;-65
2022/03/27 12:20:08;;;;;;;8.68;2.10;;;26.10;40.50;;;;;;4994075;28;20409;-63
2022/03/27 12:22:45;;;;;;;6.38;1.90;;;26.30;40.30;;;;;;4994394;28;20123;-64
2022/03/27 12:25:24;;;;;;;10.77;2.15;;;26.60;40.10;;;;;;5007455;28;20085;-66
2022/03/27 12:30:52;;;;;;;7.70;1.85;;;26.90;40.60;;;;;;5012290;28;20053;-63
2022/03/27 12:33:23;;;;;;;6.50;2.05;;;27.00;40.50;;;;;;5014032;28;20026;-65
2022/03/27 12:36:06;;;;;;;10.00;1.83;;;27.10;41.00;;;;;;5013372;28;20417;-66
2022/03/27 12:38:33;;;;;;;12.85;2.58;;;27.10;40.60;;;;;;5013284;28;20040;-66
2022/03/27 12:40:59;;;;;;;6.57;2.00;;;26.90;40.80;;;;;;5010543;28;20386;-64
2022/03/27 12:43:24;;;;;;;8.30;1.83;;;26.80;40.70;;;;;;5009601;28;20037;-67
2022/03/27 12:45:50;;;;;;;9.50;2.22;;;26.60;40.90;;;;;;5012792;28;20025;-66
2022/03/27 12:48:18;;;;;;;7.80;2.00;;;26.50;41.20;;;;;;5005354;28;20033;-63
2022/03/27 12:50:46;;;;;;;8.25;1.98;;;26.30;41.80;;;;;;5011559;28;20084;-65
2022/03/27 12:53:12;;;;;;;7.45;2.10;;;26.30;41.80;;;;;;5010943;28;20028;-65
2022/03/27 12:56:02;;;;;;;11.55;2.22;;;26.10;41.80;;;;;;5014827;28;20101;-66
2022/03/27 12:58:34;;;;;;;8.60;1.92;;;25.40;42.20;;;;;;5013922;28;20030;-64
2022/03/27 13:01:19;;;;;;;6.78;1.88;;;25.00;42.40;;;;;;5013509;28;20033;-66
2022/03/27 13:04:08;;;;;;;13.00;2.10;;;24.60;42.90;;;;;;5012889;28;20034;-66